.
WxDataArchive / Data Records for 2010-07-25
2010-07-24 July 2010 2010-07-26

Data Records for Sunday, 25 July 2010

Time	Temp	Chill	HIndex	Humid	Dewpt	 Wind 	HiWind	WindDir	Rain 	Barom 
-----	----	-----	------	-----	-----	------	------	-------	-----	----- 
00:00	72.3	72.3	72.3	96	71.1	1	3	270	0.00	29.923 
00:05	72.3	72.3	72.3	96	71.1	0	1	270	0.00	29.923 
00:10	72.3	72.3	72.3	96	71.1	0	2	270	0.00	29.923 
00:15	72.1	72.1	72.1	95	70.6	0	2	270	0.00	29.917 
00:20	72.1	72.1	72.1	96	70.9	0	1	270	0.00	29.917 
00:25	71.8	71.8	71.8	95	70.3	0	1	270	0.00	29.917 
00:30	71.6	71.6	71.6	96	70.4	0	1	270	0.00	29.903 
00:35	71.5	71.5	71.5	96	70.3	0	1	270	0.00	29.903 
00:40	71.5	71.5	71.5	96	70.3	0	0	---	0.00	29.903 
00:45	71.3	71.3	71.3	96	70.1	0	0	---	0.00	29.905 
00:50	71.3	71.3	71.3	96	70.1	0	0	---	0.00	29.905 
00:55	71.3	71.3	71.3	96	70.1	0	1	270	0.00	29.905 
01:00	71.3	71.3	71.3	96	70.1	0	1	270	0.00	29.894 
01:05	71.3	71.3	71.3	96	70.1	0	0	---	0.00	29.894 
01:10	71.3	71.3	71.3	96	70.1	0	0	---	0.00	29.894 
01:15	71.3	71.3	71.3	96	70.1	0	0	---	0.00	29.892 
01:20	71.3	71.3	71.3	96	70.1	0	0	---	0.00	29.892 
01:25	71.3	71.3	71.3	96	70.1	0	0	---	0.00	29.892 
01:30	71.3	71.3	71.3	96	70.1	0	0	---	0.00	29.889 
01:35	71.5	71.5	71.5	96	70.3	0	0	---	0.00	29.889 
01:40	71.3	71.3	71.3	96	70.1	0	0	---	0.00	29.889 
01:45	71.3	71.3	71.3	96	70.1	0	0	---	0.00	29.890 
01:50	71.3	71.3	71.3	96	70.1	0	0	---	0.00	29.890 
01:55	71.3	71.3	71.3	96	70.1	0	0	---	0.00	29.890 
02:00	71.3	71.3	71.3	96	70.1	0	0	---	0.00	29.895 
02:05	71.3	71.3	71.3	96	70.1	0	0	---	0.00	29.895 
02:10	71.3	71.3	71.3	96	70.1	0	1	270	0.00	29.895 
02:15	71.3	71.3	71.3	96	70.1	0	1	270	0.00	29.896 
02:20	71.3	71.3	71.3	96	70.1	0	1	270	0.00	29.896 
02:25	71.1	71.1	71.1	96	69.9	0	1	270	0.00	29.896 
02:30	71.3	71.3	71.3	96	70.1	0	1	270	0.00	29.899 
02:35	71.3	71.3	71.3	96	70.1	0	1	270	0.00	29.899 
02:40	71.1	71.1	71.1	96	69.9	0	0	---	0.00	29.899 
02:45	71.1	71.1	71.1	96	69.9	0	0	---	0.00	29.895 
02:50	71.1	71.1	71.1	96	69.9	0	0	---	0.01	29.895 
02:55	71.1	71.1	71.1	96	69.9	0	0	---	0.00	29.895 
03:00	71.1	71.1	71.1	96	69.9	0	0	---	0.00	29.893 
03:05	71.1	71.1	71.1	96	69.9	0	0	---	0.00	29.893 
03:10	71.1	71.1	71.1	96	69.9	0	0	---	0.00	29.893 
03:15	71.1	71.1	71.1	96	69.9	0	0	---	0.00	29.890 
03:20	71.1	71.1	71.1	96	69.9	0	0	---	0.00	29.890 
03:25	71.1	71.1	71.1	96	69.9	0	0	---	0.00	29.890 
03:30	70.9	70.9	70.9	96	69.7	0	1	270	0.00	29.889 
03:35	70.9	70.9	70.9	96	69.7	0	1	270	0.00	29.889 
03:40	70.8	70.8	70.8	96	69.6	0	1	270	0.00	29.889 
03:45	70.8	70.8	70.8	96	69.6	0	2	270	0.00	29.903 
03:50	70.6	70.6	70.6	96	69.4	0	4	270	0.00	29.903 
03:55	70.4	70.4	70.4	96	69.2	1	3	248	0.00	29.903 
04:00	70.4	70.4	70.4	96	69.2	1	4	270	0.01	29.914 
04:05	70.4	70.4	70.4	96	69.2	0	2	270	0.01	29.914 
04:10	70.4	70.4	70.4	96	69.2	1	3	270	0.01	29.914 
04:15	70.4	70.4	70.4	96	69.2	1	4	270	0.02	29.920 
04:20	70.6	70.6	70.6	96	69.4	1	4	270	0.00	29.920 
04:25	70.6	70.6	70.6	96	69.4	0	2	270	0.02	29.920 
04:30	70.8	70.8	70.8	96	69.6	0	2	270	0.01	29.910 
04:35	70.8	70.8	70.8	96	69.6	1	2	270	0.00	29.910 
04:40	70.9	70.9	70.9	96	69.7	0	1	270	0.01	29.910 
04:45	70.9	70.9	70.9	96	69.7	0	2	270	0.01	29.899 
04:50	70.9	70.9	70.9	96	69.7	0	2	270	0.01	29.899 
04:55	71.1	71.1	71.1	96	69.9	1	3	270	0.01	29.899 
05:00	71.1	71.1	71.1	96	69.9	0	2	270	0.00	29.892 
05:05	71.1	71.1	71.1	96	69.9	0	2	270	0.01	29.892 
05:10	71.1	71.1	71.1	96	69.9	0	1	270	0.00	29.892 
05:15	71.1	71.1	71.1	96	69.9	0	1	270	0.00	29.889 
05:20	71.1	71.1	71.1	96	69.9	0	1	270	0.00	29.889 
05:25	70.9	70.9	70.9	96	69.7	0	2	270	0.01	29.889 
05:30	71.1	71.1	71.1	96	69.9	0	2	270	0.00	29.867 
05:35	71.1	71.1	71.1	96	69.9	0	2	270	0.00	29.867 
05:40	71.1	71.1	71.1	96	69.9	0	1	270	0.00	29.867 
05:45	71.1	71.1	71.1	96	69.9	0	1	270	0.00	29.885 
05:50	71.1	71.1	71.1	96	69.9	0	1	270	0.00	29.885 
05:55	71.1	71.1	71.1	96	69.9	0	0	---	0.00	29.885 
06:00	71.1	71.1	71.1	96	69.9	0	0	---	0.00	29.875 
06:05	71.1	71.1	71.1	96	69.9	0	0	---	0.00	29.875 
06:10	71.1	71.1	71.1	96	69.9	0	1	270	0.00	29.875 
06:15	71.1	71.1	71.1	96	69.9	0	1	270	0.00	29.889 
06:20	71.1	71.1	71.1	96	69.9	0	1	270	0.00	29.889 
06:25	71.1	71.1	71.1	96	69.9	0	0	---	0.00	29.889 
06:30	71.1	71.1	71.1	96	69.9	0	0	---	0.00	29.883 
06:35	71.1	71.1	71.1	96	69.9	0	1	270	0.00	29.883 
06:40	71.1	71.1	71.1	96	69.9	0	1	270	0.00	29.883 
06:45	71.1	71.1	71.1	96	69.9	0	1	270	0.00	29.893 
06:50	71.1	71.1	71.1	96	69.9	0	0	---	0.00	29.893 
06:55	71.1	71.1	71.1	96	69.9	0	0	---	0.00	29.893 
07:00	71.1	71.1	71.1	96	69.9	0	1	270	0.00	29.903 
07:05	71.1	71.1	71.1	96	69.9	0	1	270	0.00	29.903 
07:10	71.3	71.3	71.3	96	70.1	0	1	270	0.00	29.903 
07:15	71.3	71.3	71.3	96	70.1	0	1	270	0.00	29.910 
07:20	71.5	71.5	71.5	96	70.3	0	1	270	0.00	29.910 
07:25	71.5	71.5	71.5	96	70.3	0	0	---	0.00	29.910 
07:30	71.5	71.5	71.5	96	70.3	0	2	270	0.00	29.915 
07:35	71.5	71.5	71.5	96	70.3	0	1	270	0.00	29.915 
07:40	71.5	71.5	71.5	96	70.3	0	1	270	0.00	29.915 
07:45	71.5	71.5	71.5	96	70.3	0	0	---	0.00	29.921 
07:50	71.5	71.5	71.5	96	70.3	0	0	---	0.00	29.921 
07:55	71.5	71.5	71.5	96	70.3	0	0	---	0.00	29.921 
08:00	71.6	71.6	71.6	96	70.4	0	1	270	0.00	29.916 
08:05	71.6	71.6	71.6	96	70.4	0	1	270	0.00	29.916 
08:10	71.6	71.6	71.6	96	70.4	0	1	270	0.00	29.916 
08:15	71.6	71.6	71.6	96	70.4	0	1	270	0.00	29.927 
08:20	71.8	71.8	71.8	96	70.6	0	0	---	0.00	29.927 
08:25	71.8	71.8	71.8	96	70.6	0	0	---	0.00	29.927 
08:30	72.0	72.0	72.0	96	70.8	0	1	270	0.00	29.931 
08:35	72.1	72.1	72.1	96	70.9	0	1	270	0.00	29.931 
08:40	72.1	72.1	72.1	96	70.9	0	1	270	0.00	29.931 
08:45	72.3	72.3	72.3	96	71.1	0	2	270	0.00	29.932 
08:50	72.3	72.3	72.3	96	71.1	0	2	270	0.00	29.932 
08:55	72.3	72.3	72.3	96	71.1	0	1	270	0.00	29.932 
09:00	72.5	72.5	72.5	96	71.3	0	2	270	0.00	29.938 
09:05	72.5	72.5	72.5	96	71.3	0	2	270	0.00	29.938 
09:10	72.5	72.5	72.5	96	71.3	0	2	270	0.00	29.938 
09:15	72.5	72.5	72.5	96	71.3	0	0	---	0.00	29.948 
09:20	72.5	72.5	72.5	96	71.3	0	1	270	0.00	29.948 
09:25	72.5	72.5	72.5	96	71.3	0	2	270	0.00	29.948 
09:30	72.7	72.7	72.7	96	71.5	0	1	270	0.00	29.948 
09:35	72.7	72.7	72.7	96	71.5	0	1	270	0.00	29.948 
09:40	72.8	72.8	72.8	96	71.6	0	1	270	0.00	29.948 
09:45	72.7	72.7	72.7	96	71.5	0	2	270	0.00	29.958 
09:50	72.7	72.7	72.7	96	71.5	0	1	270	0.00	29.958 
09:55	72.8	72.8	72.8	96	71.6	0	1	270	0.00	29.958 
10:00	72.8	72.8	72.8	96	71.6	0	1	270	0.00	29.962 
10:05	73.0	73.0	73.0	96	71.8	0	1	270	0.00	29.962 
10:10	73.2	73.2	73.2	96	72.0	0	1	270	0.00	29.962 
10:15	73.2	73.2	73.2	96	72.0	0	1	270	0.00	29.965 
10:20	73.2	73.2	73.2	96	72.0	0	1	270	0.00	29.965 
10:25	73.5	73.5	73.5	96	72.3	0	1	270	0.00	29.965 
10:30	73.9	73.9	73.9	96	72.7	0	1	270	0.00	29.976 
10:35	73.9	73.9	73.9	96	72.7	0	2	270	0.00	29.976 
10:40	73.9	73.9	73.9	96	72.7	0	2	270	0.00	29.976 
10:45	73.7	73.7	73.7	96	72.5	0	2	270	0.00	29.978 
10:50	74.0	74.0	74.0	96	72.8	0	1	270	0.00	29.978 
10:55	74.4	74.4	74.4	96	73.2	0	1	270	0.00	29.978 
11:00	74.4	74.4	74.4	95	72.9	0	2	270	0.00	29.979 
11:05	74.7	74.7	74.7	95	73.2	0	4	112	0.00	29.979 
11:10	74.7	74.7	74.7	94	72.9	0	1	112	0.00	29.979 
11:15	74.9	74.9	74.9	94	73.0	0	1	112	0.00	29.987 
11:20	75.1	75.1	73.6	94	73.2	0	1	112	0.00	29.987 
11:25	76.1	76.1	75.9	93	73.9	0	1	112	0.00	29.987 
11:30	76.0	76.0	75.9	91	73.2	0	2	112	0.00	29.989 
11:35	76.3	76.3	76.7	90	73.1	0	2	292	0.00	29.989 
11:40	76.8	76.8	77.9	87	72.6	0	3	135	0.00	29.989 
11:45	77.0	77.0	78.4	84	71.8	0	2	315	0.00	29.993 
11:50	77.0	77.0	78.5	83	71.4	0	3	68	0.00	29.993 
11:55	77.6	77.6	79.6	83	72.0	0	1	248	0.00	29.993 
12:00	78.3	78.3	80.9	81	72.0	1	3	112	0.00	29.992 
12:05	77.9	77.9	80.1	79	70.8	0	1	112	0.00	29.992 
12:10	77.9	77.9	80.1	79	70.8	1	5	135	0.00	29.992 
12:15	78.5	78.5	81.1	77	70.7	1	4	135	0.00	29.994 
12:20	79.4	79.4	82.7	77	71.5	0	4	135	0.00	29.994 
12:25	80.1	80.1	83.6	74	71.0	2	7	112	0.00	29.994 
12:30	80.3	80.3	84.0	74	71.2	1	5	112	0.00	29.994 
12:35	80.5	80.5	84.2	73	71.0	0	3	158	0.00	29.994 
12:40	80.5	80.5	83.8	70	69.8	1	3	292	0.00	29.994 
12:45	79.9	79.9	82.7	69	68.8	2	5	90	0.00	29.998 
12:50	79.8	79.8	83.0	73	70.4	0	1	22	0.00	29.998 
12:55	80.1	80.1	83.0	69	69.0	1	6	90	0.00	29.998 
13:00	80.5	80.5	84.1	72	70.6	0	2	112	0.00	30.005 
13:05	80.9	80.9	84.0	67	68.9	0	3	90	0.00	30.005 
13:10	81.8	81.8	85.9	69	70.6	1	4	45	0.00	30.005 
13:15	81.8	81.8	85.7	68	70.2	1	5	45	0.00	30.004 
13:20	82.0	82.0	85.6	66	69.5	0	3	112	0.00	30.004 
13:25	82.0	82.0	84.4	60	66.7	1	3	22	0.00	30.004 
13:30	82.2	82.2	85.1	62	67.9	1	4	112	0.00	30.007 
13:35	82.2	82.2	85.1	62	67.9	1	5	112	0.00	30.007 
13:40	82.6	82.6	85.7	62	68.2	1	4	135	0.00	30.007 
13:45	82.8	82.8	85.6	60	67.5	1	5	68	0.00	30.005 
13:50	83.2	83.2	86.5	61	68.3	1	4	135	0.00	30.005 
13:55	83.6	83.6	86.9	60	68.2	2	5	112	0.00	30.005 
14:00	83.8	83.8	86.9	59	67.9	2	6	112	0.00	30.006 
14:05	83.6	83.6	86.1	57	66.7	2	5	112	0.00	30.006 
14:10	83.8	83.8	86.9	59	67.9	2	4	135	0.00	30.006 
14:15	83.8	83.8	86.0	55	65.9	1	4	135	0.00	30.006 
14:20	84.0	84.0	87.0	58	67.6	1	5	135	0.00	30.006 
14:25	84.3	84.3	88.0	60	68.9	1	6	135	0.00	30.006 
14:30	83.8	83.8	86.0	55	65.9	0	3	90	0.00	30.005 
14:35	83.2	83.2	85.3	56	65.8	0	3	135	0.00	30.005 
14:40	83.4	83.4	85.4	55	65.5	0	3	292	0.00	30.005 
14:45	83.6	83.6	85.7	55	65.7	1	6	292	0.00	30.006 
14:50	84.3	84.3	87.0	56	66.9	1	4	135	0.00	30.006 
14:55	83.6	83.6	85.5	54	65.2	0	2	68	0.00	30.006 
15:00	82.6	82.6	84.5	56	65.3	0	2	292	0.00	30.011 
15:05	82.6	82.6	84.9	58	66.3	1	6	292	0.00	30.011 
15:10	83.2	83.2	86.0	59	67.4	1	3	338	0.00	30.011 
15:15	83.6	83.6	85.7	55	65.7	0	3	315	0.00	30.017 
15:20	84.0	84.0	85.8	53	65.0	0	2	0	0.00	30.017 
15:25	83.8	83.8	85.7	54	65.3	0	2	0	0.00	30.017 
15:30	84.1	84.1	86.9	57	67.2	0	3	0	0.00	30.017 
15:35	84.3	84.3	86.7	55	66.3	1	4	68	0.00	30.017 
15:40	84.1	84.1	85.9	53	65.1	0	2	68	0.00	30.017 
15:45	84.1	84.1	86.7	56	66.7	1	3	112	0.00	30.019 
15:50	84.3	84.3	86.7	55	66.3	1	3	112	0.00	30.019 
15:55	84.5	84.5	86.0	51	64.4	1	4	112	0.00	30.019 
16:00	84.7	84.7	86.0	50	64.0	0	3	315	0.00	30.019 
16:05	84.7	84.7	86.0	50	64.0	0	2	338	0.00	30.019 
16:10	84.3	84.3	85.7	51	64.2	0	2	112	0.00	30.019 
16:15	83.6	83.6	85.5	54	65.2	0	2	112	0.00	30.021 
16:20	83.4	83.4	84.6	51	63.3	0	2	112	0.00	30.021 
16:25	84.0	84.0	85.6	52	64.4	1	4	45	0.00	30.021 
16:30	83.2	83.2	84.7	53	64.3	0	3	248	0.00	30.019 
16:35	82.6	82.6	84.7	57	65.8	0	2	248	0.00	30.019 
16:40	83.0	83.0	85.1	56	65.7	0	1	248	0.00	30.019 
16:45	83.0	83.0	84.5	53	64.1	0	1	248	0.00	30.018 
16:50	83.2	83.2	84.5	52	63.7	0	1	248	0.00	30.018 
16:55	82.6	82.6	84.1	54	64.2	0	1	248	0.00	30.018 
17:00	81.8	81.8	83.5	56	64.5	0	0	---	0.00	30.019 
17:05	82.0	82.0	83.9	57	65.2	0	2	270	0.00	30.019 
17:10	82.2	82.2	83.8	55	64.4	1	3	270	0.00	30.019 
17:15	82.6	82.6	83.8	52	63.2	0	2	45	0.00	30.012 
17:20	83.2	83.2	84.5	52	63.7	0	4	45	0.00	30.012 
17:25	83.4	83.4	84.8	52	63.9	0	2	112	0.00	30.012 
17:30	83.2	83.2	84.3	51	63.2	0	1	112	0.00	30.009 
17:35	83.2	83.2	84.5	52	63.7	0	4	68	0.00	30.009 
17:40	82.6	82.6	84.1	54	64.2	0	3	68	0.00	30.009 
17:45	81.8	81.8	83.5	56	64.5	0	1	68	0.00	30.012 
17:50	81.2	81.2	82.7	56	64.0	0	1	68	0.00	30.012 
17:55	81.2	81.2	82.5	54	62.9	0	1	68	0.00	30.012 
18:00	81.6	81.6	82.5	51	61.7	0	2	68	0.00	30.012 
18:05	81.8	81.8	82.8	52	62.4	1	3	292	0.00	30.012 
18:10	81.8	81.8	82.7	51	61.9	0	1	292	0.00	30.012 
18:15	81.8	81.8	83.2	54	63.5	0	1	292	0.00	30.015 
18:20	81.8	81.8	83.0	53	63.0	0	1	292	0.00	30.015 
18:25	82.0	82.0	83.2	53	63.2	0	3	292	0.00	30.015 
18:30	82.0	82.0	82.9	51	62.1	0	2	292	0.00	30.022 
18:35	81.8	81.8	82.7	51	61.9	0	1	292	0.00	30.022 
18:40	81.6	81.6	82.3	50	61.1	0	3	292	0.00	30.022 
18:45	81.6	81.6	82.5	51	61.7	0	2	292	0.00	30.024 
18:50	81.6	81.6	82.5	51	61.7	1	3	292	0.00	30.024 
18:55	81.6	81.6	82.3	50	61.1	0	3	292	0.00	30.024 
19:00	81.4	81.4	82.3	51	61.5	0	2	292	0.00	30.028 
19:05	81.2	81.2	81.9	50	60.8	0	2	45	0.00	30.028 
19:10	81.1	81.1	82.0	51	61.2	0	3	270	0.00	30.028 
19:15	80.9	80.9	81.9	52	61.6	0	2	315	0.00	30.032 
19:20	80.9	80.9	82.0	53	62.1	0	1	315	0.00	30.032 
19:25	80.7	80.7	81.6	51	60.9	0	1	315	0.00	30.032 
19:30	80.5	80.5	81.3	50	60.1	0	2	315	0.00	30.037 
19:35	80.3	80.3	81.1	50	59.9	0	3	315	0.00	30.037 
19:40	80.3	80.3	81.2	51	60.5	0	2	270	0.00	30.037 
19:45	80.1	80.1	81.0	51	60.3	0	0	---	0.00	30.038 
19:50	79.9	79.9	80.9	52	60.7	0	1	270	0.00	30.038 
19:55	79.9	79.9	81.0	53	61.2	0	2	270	0.00	30.038 
20:00	79.8	79.8	81.0	54	61.7	0	1	270	0.00	30.041 
20:05	79.6	79.6	80.7	53	60.9	0	1	270	0.00	30.041 
20:10	79.2	79.2	80.4	53	60.6	0	1	270	0.00	30.041 
20:15	79.0	79.0	80.1	52	59.8	0	1	270	0.00	30.042 
20:20	78.6	78.6	79.8	53	60.0	0	0	---	0.00	30.042 
20:25	78.5	78.5	79.9	55	61.0	0	0	---	0.00	30.042 
20:30	78.1	78.1	79.5	55	60.6	0	1	270	0.00	30.042 
20:35	77.9	77.9	79.4	56	60.9	0	0	---	0.00	30.042 
20:40	77.6	77.6	79.2	57	61.1	0	0	---	0.00	30.042 
20:45	77.2	77.2	78.9	57	60.8	0	0	---	0.00	30.047 
20:50	76.8	76.8	78.6	57	60.4	0	0	---	0.00	30.047 
20:55	76.7	76.7	78.5	58	60.8	0	0	---	0.00	30.047 
21:00	76.3	76.3	78.2	58	60.4	0	0	---	0.00	30.047 
21:05	76.0	76.0	78.0	59	60.6	0	0	---	0.00	30.047 
21:10	75.6	75.6	77.8	59	60.2	0	0	---	0.00	30.047 
21:15	75.3	75.3	77.6	59	60.0	0	0	---	0.00	30.047 
21:20	74.9	74.9	74.9	60	60.1	0	0	---	0.00	30.047 
21:25	74.6	74.6	74.6	60	59.8	0	0	---	0.00	30.047 
21:30	74.2	74.2	74.2	61	59.9	0	0	---	0.00	30.052 
21:35	73.9	73.9	73.9	62	60.0	0	0	---	0.00	30.052 
21:40	73.7	73.7	73.7	62	59.9	0	0	---	0.00	30.052 
21:45	73.3	73.3	73.3	62	59.5	0	0	---	0.00	30.056 
21:50	73.0	73.0	73.0	64	60.1	0	0	---	0.00	30.056 
21:55	72.8	72.8	72.8	65	60.3	0	0	---	0.00	30.056 
22:00	72.5	72.5	72.5	65	60.0	0	0	---	0.00	30.059 
22:05	72.3	72.3	72.3	65	59.9	0	0	---	0.00	30.059 
22:10	72.1	72.1	72.1	66	60.1	0	0	---	0.00	30.059 
22:15	72.0	72.0	72.0	67	60.4	0	0	---	0.00	30.064 
22:20	71.8	71.8	71.8	67	60.2	0	0	---	0.00	30.064 
22:25	71.5	71.5	71.5	68	60.4	0	0	---	0.00	30.064 
22:30	71.3	71.3	71.3	69	60.6	0	0	---	0.00	30.071 
22:35	71.1	71.1	71.1	69	60.4	0	0	---	0.00	30.071 
22:40	71.1	71.1	71.1	69	60.4	0	0	---	0.00	30.071 
22:45	70.9	70.9	70.9	70	60.6	0	0	---	0.00	30.078 
22:50	70.6	70.6	70.6	70	60.3	0	0	---	0.00	30.078 
22:55	70.4	70.4	70.4	70	60.1	0	0	---	0.00	30.078 
23:00	70.3	70.3	70.3	71	60.4	0	0	---	0.00	30.083 
23:05	70.1	70.1	70.1	72	60.6	0	0	---	0.00	30.083 
23:10	69.8	69.8	69.8	73	60.7	0	0	---	0.00	30.083 
23:15	69.6	69.6	69.6	73	60.6	0	0	---	0.00	30.085 
23:20	69.4	69.4	69.4	74	60.7	0	0	---	0.00	30.085 
23:25	69.3	69.3	69.3	74	60.6	0	0	---	0.00	30.085 
23:30	69.1	69.1	69.1	75	60.8	0	0	---	0.00	30.085 
23:35	68.8	68.8	68.8	76	60.9	0	0	---	0.00	30.085 
23:40	68.6	68.6	68.6	77	61.1	0	0	---	0.00	30.085 
23:45	68.4	68.4	68.4	77	60.9	0	0	---	0.00	30.088 
23:50	68.1	68.1	68.1	78	61.0	0	0	---	0.00	30.088 
23:55	67.9	67.9	67.9	78	60.8	0	0	---	0.00	30.088 

CoCoRaHS
IN-AL-39
A2 Web Hosting
Creative Commons License
GoDaddy
search engine by freefind advanced

loaded 2018-11-19 18:46:37 • last modified 2010-11-18 10:43:29
Privacy PolicyDisclaimer
• wx.awcolley.com is powered by PmWiki v.2002016 •
• all content (unless otherwise noted) © 2018 A W Colley